Terminal Aerodrome Forecast
Issued by NWS Boise, ID

Home | Current Version | Previous Version | Text Only | Print | Product List | Glossary On
Versions: 1 2 3 4 5 6 7 8 9 10 11 12 13 14 15 16 17 18 19 20 21 22 23
519
FTUS45 KBOI 301121
TAFBNO
TAF
KBNO 301121Z 3012/0112 VRB06KT P6SM VCSH OVC070
     FM301700 26015G25KT P6SM BKN070 OVC100
     FM010200 25010KT P6SM BKN100=

USA.gov is the U.S. government's official web portal to all federal, state and local government web resources and services.